sensor_id;sensor_type;location;lat;lon;timestamp;temperature;humidity
15083;DHT22;7640;53.116;6.878;2023-02-26T00:02:01;1.50;99.90
15083;DHT22;7640;53.116;6.878;2023-02-26T00:04:30;1.50;99.90
15083;DHT22;7640;53.116;6.878;2023-02-26T00:06:59;1.50;99.90
15083;DHT22;7640;53.116;6.878;2023-02-26T00:09:27;1.50;99.90
15083;DHT22;7640;53.116;6.878;2023-02-26T00:11:56;1.40;99.90
15083;DHT22;7640;53.116;6.878;2023-02-26T00:14:25;1.40;99.90
15083;DHT22;7640;53.116;6.878;2023-02-26T00:17:09;1.40;99.90
15083;DHT22;7640;53.116;6.878;2023-02-26T00:19:46;1.40;99.90
15083;DHT22;7640;53.116;6.878;2023-02-26T00:22:15;1.30;99.90
15083;DHT22;7640;53.116;6.878;2023-02-26T00:24:44;1.30;99.90
15083;DHT22;7640;53.116;6.878;2023-02-26T00:27:13;1.30;99.90
15083;DHT22;7640;53.116;6.878;2023-02-26T00:29:41;1.30;99.90
15083;DHT22;7640;53.116;6.878;2023-02-26T00:32:11;1.30;99.90
15083;DHT22;7640;53.116;6.878;2023-02-26T00:34:40;1.30;99.90
15083;DHT22;7640;53.116;6.878;2023-02-26T00:37:21;1.30;99.90
15083;DHT22;7640;53.116;6.878;2023-02-26T00:40:04;1.20;99.90
15083;DHT22;7640;53.116;6.878;2023-02-26T00:42:39;1.20;99.90
15083;DHT22;7640;53.116;6.878;2023-02-26T00:45:09;1.20;99.90
15083;DHT22;7640;53.116;6.878;2023-02-26T00:47:46;1.20;99.90
15083;DHT22;7640;53.116;6.878;2023-02-26T00:50:19;1.10;99.90
15083;DHT22;7640;53.116;6.878;2023-02-26T00:53:06;1.10;99.90
15083;DHT22;7640;53.116;6.878;2023-02-26T00:55:39;1.10;99.90
15083;DHT22;7640;53.116;6.878;2023-02-26T00:58:07;1.10;99.90
15083;DHT22;7640;53.116;6.878;2023-02-26T01:00:36;1.10;99.90
15083;DHT22;7640;53.116;6.878;2023-02-26T01:03:05;1.10;99.90
15083;DHT22;7640;53.116;6.878;2023-02-26T01:05:34;1.00;99.90
15083;DHT22;7640;53.116;6.878;2023-02-26T01:08:11;1.00;99.90
15083;DHT22;7640;53.116;6.878;2023-02-26T01:10:41;1.00;99.90
15083;DHT22;7640;53.116;6.878;2023-02-26T01:13:10;1.00;99.90
15083;DHT22;7640;53.116;6.878;2023-02-26T01:15:43;1.00;99.90
15083;DHT22;7640;53.116;6.878;2023-02-26T01:18:18;0.90;99.90
15083;DHT22;7640;53.116;6.878;2023-02-26T01:20:54;0.90;99.90
15083;DHT22;7640;53.116;6.878;2023-02-26T01:23:26;0.90;99.90
15083;DHT22;7640;53.116;6.878;2023-02-26T01:25:59;0.90;99.90
15083;DHT22;7640;53.116;6.878;2023-02-26T01:28:31;0.90;99.90
15083;DHT22;7640;53.116;6.878;2023-02-26T01:31:02;0.90;99.90
15083;DHT22;7640;53.116;6.878;2023-02-26T01:33:37;0.90;99.90
15083;DHT22;7640;53.116;6.878;2023-02-26T01:36:11;0.90;99.90
15083;DHT22;7640;53.116;6.878;2023-02-26T01:38:52;0.90;99.90
15083;DHT22;7640;53.116;6.878;2023-02-26T01:41:29;0.80;99.90
15083;DHT22;7640;53.116;6.878;2023-02-26T01:44:08;0.80;99.90
15083;DHT22;7640;53.116;6.878;2023-02-26T01:46:52;0.80;99.90
15083;DHT22;7640;53.116;6.878;2023-02-26T01:49:28;0.80;99.90
15083;DHT22;7640;53.116;6.878;2023-02-26T01:51:58;0.80;99.90
15083;DHT22;7640;53.116;6.878;2023-02-26T01:54:32;0.70;99.90
15083;DHT22;7640;53.116;6.878;2023-02-26T01:57:03;0.70;99.90
15083;DHT22;7640;53.116;6.878;2023-02-26T01:59:35;0.70;99.90
15083;DHT22;7640;53.116;6.878;2023-02-26T02:02:06;0.70;99.90
15083;DHT22;7640;53.116;6.878;2023-02-26T02:04:36;0.60;99.90
15083;DHT22;7640;53.116;6.878;2023-02-26T02:07:05;0.60;99.90
15083;DHT22;7640;53.116;6.878;2023-02-26T02:09:35;0.60;99.90
15083;DHT22;7640;53.116;6.878;2023-02-26T02:12:20;0.60;99.90
15083;DHT22;7640;53.116;6.878;2023-02-26T02:15:03;0.60;99.90
15083;DHT22;7640;53.116;6.878;2023-02-26T02:17:43;0.50;99.90
15083;DHT22;7640;53.116;6.878;2023-02-26T02:20:28;0.50;99.90
15083;DHT22;7640;53.116;6.878;2023-02-26T02:23:15;0.50;99.90
15083;DHT22;7640;53.116;6.878;2023-02-26T02:26:18;0.50;99.90
15083;DHT22;7640;53.116;6.878;2023-02-26T02:29:52;0.50;99.90
15083;DHT22;7640;53.116;6.878;2023-02-26T02:32:35;0.40;99.90
15083;DHT22;7640;53.116;6.878;2023-02-26T02:35:13;0.40;99.90
15083;DHT22;7640;53.116;6.878;2023-02-26T02:37:47;0.30;99.90
15083;DHT22;7640;53.116;6.878;2023-02-26T02:40:21;0.30;99.90
15083;DHT22;7640;53.116;6.878;2023-02-26T02:42:54;0.20;99.90
15083;DHT22;7640;53.116;6.878;2023-02-26T02:45:28;0.20;99.90
15083;DHT22;7640;53.116;6.878;2023-02-26T02:48:03;0.20;99.90
15083;DHT22;7640;53.116;6.878;2023-02-26T02:50:35;0.10;99.90
15083;DHT22;7640;53.116;6.878;2023-02-26T02:53:09;0.10;99.90
15083;DHT22;7640;53.116;6.878;2023-02-26T02:55:45;0.00;99.90
15083;DHT22;7640;53.116;6.878;2023-02-26T02:58:20;0.10;99.90
15083;DHT22;7640;53.116;6.878;2023-02-26T03:00:54;0.00;99.90
15083;DHT22;7640;53.116;6.878;2023-02-26T03:03:30;0.00;99.90
15083;DHT22;7640;53.116;6.878;2023-02-26T03:06:02;0.00;99.90
15083;DHT22;7640;53.116;6.878;2023-02-26T03:08:35;0.00;99.90
15083;DHT22;7640;53.116;6.878;2023-02-26T03:11:07;0.00;99.90
15083;DHT22;7640;53.116;6.878;2023-02-26T03:13:37;-0.10;99.90
15083;DHT22;7640;53.116;6.878;2023-02-26T03:16:15;-0.10;99.90
15083;DHT22;7640;53.116;6.878;2023-02-26T03:19:00;-0.10;99.90
15083;DHT22;7640;53.116;6.878;2023-02-26T03:21:41;-0.10;99.90
15083;DHT22;7640;53.116;6.878;2023-02-26T03:24:16;-0.20;99.90
15083;DHT22;7640;53.116;6.878;2023-02-26T03:26:55;-0.20;99.90
15083;DHT22;7640;53.116;6.878;2023-02-26T03:29:31;-0.20;99.90
15083;DHT22;7640;53.116;6.878;2023-02-26T03:32:05;-0.20;99.90
15083;DHT22;7640;53.116;6.878;2023-02-26T03:34:40;-0.20;99.90
15083;DHT22;7640;53.116;6.878;2023-02-26T03:37:16;-0.20;99.90
15083;DHT22;7640;53.116;6.878;2023-02-26T03:39:51;-0.10;99.90
15083;DHT22;7640;53.116;6.878;2023-02-26T03:42:26;-0.10;99.90
15083;DHT22;7640;53.116;6.878;2023-02-26T03:44:58;-0.10;99.90
15083;DHT22;7640;53.116;6.878;2023-02-26T03:47:29;-0.10;99.90
15083;DHT22;7640;53.116;6.878;2023-02-26T03:50:04;-0.20;99.90
15083;DHT22;7640;53.116;6.878;2023-02-26T03:52:37;-0.20;99.90
15083;DHT22;7640;53.116;6.878;2023-02-26T03:55:12;-0.20;99.90
15083;DHT22;7640;53.116;6.878;2023-02-26T03:57:44;-0.20;99.90
15083;DHT22;7640;53.116;6.878;2023-02-26T04:00:13;-0.20;99.90
15083;DHT22;7640;53.116;6.878;2023-02-26T04:02:47;-0.20;99.90
15083;DHT22;7640;53.116;6.878;2023-02-26T04:05:24;-0.20;99.90
15083;DHT22;7640;53.116;6.878;2023-02-26T04:07:54;-0.20;99.90
15083;DHT22;7640;53.116;6.878;2023-02-26T04:10:28;-0.20;99.90
15083;DHT22;7640;53.116;6.878;2023-02-26T04:13:00;-0.20;99.90
15083;DHT22;7640;53.116;6.878;2023-02-26T04:15:29;-0.30;99.90
15083;DHT22;7640;53.116;6.878;2023-02-26T04:17:57;-0.20;99.90
15083;DHT22;7640;53.116;6.878;2023-02-26T04:20:27;-0.20;99.90
15083;DHT22;7640;53.116;6.878;2023-02-26T04:22:55;-0.20;99.90
15083;DHT22;7640;53.116;6.878;2023-02-26T04:25:24;-0.20;99.90
15083;DHT22;7640;53.116;6.878;2023-02-26T04:27:52;-0.20;99.90
15083;DHT22;7640;53.116;6.878;2023-02-26T04:30:21;-0.20;99.90
15083;DHT22;7640;53.116;6.878;2023-02-26T04:32:49;-0.20;99.90
15083;DHT22;7640;53.116;6.878;2023-02-26T04:35:18;-0.20;99.90
15083;DHT22;7640;53.116;6.878;2023-02-26T04:37:48;-0.20;99.90
15083;DHT22;7640;53.116;6.878;2023-02-26T04:40:16;-0.20;99.90
15083;DHT22;7640;53.116;6.878;2023-02-26T04:42:44;-0.20;99.90
15083;DHT22;7640;53.116;6.878;2023-02-26T04:45:13;-0.20;99.90
15083;DHT22;7640;53.116;6.878;2023-02-26T04:47:42;-0.20;99.90
15083;DHT22;7640;53.116;6.878;2023-02-26T04:50:10;-0.30;99.90
15083;DHT22;7640;53.116;6.878;2023-02-26T04:52:39;-0.30;99.90
15083;DHT22;7640;53.116;6.878;2023-02-26T04:55:09;-0.30;99.90
15083;DHT22;7640;53.116;6.878;2023-02-26T04:57:37;-0.30;99.90
15083;DHT22;7640;53.116;6.878;2023-02-26T05:00:07;-0.30;99.90
15083;DHT22;7640;53.116;6.878;2023-02-26T05:02:36;-0.30;99.90
15083;DHT22;7640;53.116;6.878;2023-02-26T05:05:04;-0.40;99.90
15083;DHT22;7640;53.116;6.878;2023-02-26T05:07:33;-0.40;99.90
15083;DHT22;7640;53.116;6.878;2023-02-26T05:10:01;-0.40;99.90
15083;DHT22;7640;53.116;6.878;2023-02-26T05:12:32;-0.40;99.90
15083;DHT22;7640;53.116;6.878;2023-02-26T05:15:00;-0.40;99.90
15083;DHT22;7640;53.116;6.878;2023-02-26T05:17:29;-0.50;99.90
15083;DHT22;7640;53.116;6.878;2023-02-26T05:19:57;-0.50;99.90
15083;DHT22;7640;53.116;6.878;2023-02-26T05:22:26;-0.50;99.90
15083;DHT22;7640;53.116;6.878;2023-02-26T05:24:54;-0.50;99.90
15083;DHT22;7640;53.116;6.878;2023-02-26T05:27:23;-0.50;99.90
15083;DHT22;7640;53.116;6.878;2023-02-26T05:29:53;-0.50;99.90
15083;DHT22;7640;53.116;6.878;2023-02-26T05:32:21;-0.50;99.90
15083;DHT22;7640;53.116;6.878;2023-02-26T05:34:49;-0.50;99.90
15083;DHT22;7640;53.116;6.878;2023-02-26T05:37:18;-0.50;99.90
15083;DHT22;7640;53.116;6.878;2023-02-26T05:39:46;-0.50;99.90
15083;DHT22;7640;53.116;6.878;2023-02-26T05:42:15;-0.50;99.90
15083;DHT22;7640;53.116;6.878;2023-02-26T05:44:43;-0.40;99.90
15083;DHT22;7640;53.116;6.878;2023-02-26T05:47:13;-0.40;99.90
15083;DHT22;7640;53.116;6.878;2023-02-26T05:49:41;-0.40;99.90
15083;DHT22;7640;53.116;6.878;2023-02-26T05:52:10;-0.30;99.90
15083;DHT22;7640;53.116;6.878;2023-02-26T05:54:39;-0.30;99.90
15083;DHT22;7640;53.116;6.878;2023-02-26T05:57:07;-0.30;99.90
15083;DHT22;7640;53.116;6.878;2023-02-26T05:59:35;-0.30;99.90
15083;DHT22;7640;53.116;6.878;2023-02-26T06:02:04;-0.20;99.90
15083;DHT22;7640;53.116;6.878;2023-02-26T06:04:35;-0.20;99.90
15083;DHT22;7640;53.116;6.878;2023-02-26T06:07:04;-0.20;99.90
15083;DHT22;7640;53.116;6.878;2023-02-26T06:09:32;-0.20;99.90
15083;DHT22;7640;53.116;6.878;2023-02-26T06:12:00;-0.20;99.90
15083;DHT22;7640;53.116;6.878;2023-02-26T06:14:29;-0.20;99.90
15083;DHT22;7640;53.116;6.878;2023-02-26T06:16:57;-0.20;99.90
15083;DHT22;7640;53.116;6.878;2023-02-26T06:19:26;-0.20;99.90
15083;DHT22;7640;53.116;6.878;2023-02-26T06:21:55;-0.30;99.90
15083;DHT22;7640;53.116;6.878;2023-02-26T06:24:24;-0.30;99.90
15083;DHT22;7640;53.116;6.878;2023-02-26T06:26:53;-0.40;99.90
15083;DHT22;7640;53.116;6.878;2023-02-26T06:29:21;-0.40;99.90
15083;DHT22;7640;53.116;6.878;2023-02-26T06:31:50;-0.40;99.90
15083;DHT22;7640;53.116;6.878;2023-02-26T06:34:18;-0.40;99.90
15083;DHT22;7640;53.116;6.878;2023-02-26T06:36:48;-0.40;99.90
15083;DHT22;7640;53.116;6.878;2023-02-26T06:39:18;-0.50;99.90
15083;DHT22;7640;53.116;6.878;2023-02-26T06:41:46;-0.40;99.90
15083;DHT22;7640;53.116;6.878;2023-02-26T06:44:15;-0.40;99.90
15083;DHT22;7640;53.116;6.878;2023-02-26T06:46:43;-0.40;99.90
15083;DHT22;7640;53.116;6.878;2023-02-26T06:49:11;-0.30;99.90
15083;DHT22;7640;53.116;6.878;2023-02-26T06:51:40;-0.30;99.90
15083;DHT22;7640;53.116;6.878;2023-02-26T06:54:08;-0.30;99.90
15083;DHT22;7640;53.116;6.878;2023-02-26T06:56:38;-0.30;99.90
15083;DHT22;7640;53.116;6.878;2023-02-26T06:59:06;-0.30;99.90
15083;DHT22;7640;53.116;6.878;2023-02-26T07:01:35;-0.30;99.90
15083;DHT22;7640;53.116;6.878;2023-02-26T07:04:03;-0.30;99.90
15083;DHT22;7640;53.116;6.878;2023-02-26T07:06:31;-0.30;99.90
15083;DHT22;7640;53.116;6.878;2023-02-26T07:09:00;-0.30;99.90
15083;DHT22;7640;53.116;6.878;2023-02-26T07:11:29;-0.30;99.90
15083;DHT22;7640;53.116;6.878;2023-02-26T07:13:59;-0.30;99.90
15083;DHT22;7640;53.116;6.878;2023-02-26T07:16:27;-0.30;99.90
15083;DHT22;7640;53.116;6.878;2023-02-26T07:18:56;-0.20;99.90
15083;DHT22;7640;53.116;6.878;2023-02-26T07:21:25;-0.20;99.90
15083;DHT22;7640;53.116;6.878;2023-02-26T07:23:53;-0.10;99.90
15083;DHT22;7640;53.116;6.878;2023-02-26T07:26:21;-0.10;99.90
15083;DHT22;7640;53.116;6.878;2023-02-26T07:28:51;0.00;99.90
15083;DHT22;7640;53.116;6.878;2023-02-26T07:31:20;0.10;99.90
15083;DHT22;7640;53.116;6.878;2023-02-26T07:33:49;0.20;99.90
15083;DHT22;7640;53.116;6.878;2023-02-26T07:36:17;0.30;99.90
15083;DHT22;7640;53.116;6.878;2023-02-26T07:38:46;0.30;99.90
15083;DHT22;7640;53.116;6.878;2023-02-26T07:41:15;0.40;99.90
15083;DHT22;7640;53.116;6.878;2023-02-26T07:43:43;0.50;99.90
15083;DHT22;7640;53.116;6.878;2023-02-26T07:46:12;0.50;99.90
15083;DHT22;7640;53.116;6.878;2023-02-26T07:48:42;0.60;99.90
15083;DHT22;7640;53.116;6.878;2023-02-26T07:51:10;0.70;99.90
15083;DHT22;7640;53.116;6.878;2023-02-26T07:53:39;0.80;99.90
15083;DHT22;7640;53.116;6.878;2023-02-26T07:56:07;0.80;99.90
15083;DHT22;7640;53.116;6.878;2023-02-26T07:58:36;0.90;99.90
15083;DHT22;7640;53.116;6.878;2023-02-26T08:01:04;1.00;99.90
15083;DHT22;7640;53.116;6.878;2023-02-26T08:03:33;1.10;99.90
15083;DHT22;7640;53.116;6.878;2023-02-26T08:06:03;1.20;99.90
15083;DHT22;7640;53.116;6.878;2023-02-26T08:08:33;1.30;99.90
15083;DHT22;7640;53.116;6.878;2023-02-26T08:11:02;1.40;99.90
15083;DHT22;7640;53.116;6.878;2023-02-26T08:13:30;1.50;99.90
15083;DHT22;7640;53.116;6.878;2023-02-26T08:15:59;1.60;99.90
15083;DHT22;7640;53.116;6.878;2023-02-26T08:18:28;1.70;99.90
15083;DHT22;7640;53.116;6.878;2023-02-26T08:20:56;1.80;99.90
15083;DHT22;7640;53.116;6.878;2023-02-26T08:23:26;1.90;99.90
15083;DHT22;7640;53.116;6.878;2023-02-26T08:26:00;2.00;99.90
15083;DHT22;7640;53.116;6.878;2023-02-26T08:28:28;2.00;99.90
15083;DHT22;7640;53.116;6.878;2023-02-26T08:30:57;2.10;99.90
15083;DHT22;7640;53.116;6.878;2023-02-26T08:33:26;2.20;99.90
15083;DHT22;7640;53.116;6.878;2023-02-26T08:35:55;2.30;99.90
15083;DHT22;7640;53.116;6.878;2023-02-26T08:38:26;2.40;99.90
15083;DHT22;7640;53.116;6.878;2023-02-26T08:40:55;2.40;99.90
15083;DHT22;7640;53.116;6.878;2023-02-26T08:43:24;2.50;99.90
15083;DHT22;7640;53.116;6.878;2023-02-26T08:45:54;2.50;99.90
15083;DHT22;7640;53.116;6.878;2023-02-26T08:48:23;2.60;99.90
15083;DHT22;7640;53.116;6.878;2023-02-26T08:50:52;2.60;99.90
15083;DHT22;7640;53.116;6.878;2023-02-26T08:53:20;2.70;99.90
15083;DHT22;7640;53.116;6.878;2023-02-26T08:55:51;2.80;99.90
15083;DHT22;7640;53.116;6.878;2023-02-26T08:58:20;2.80;99.90
15083;DHT22;7640;53.116;6.878;2023-02-26T09:00:49;2.90;99.90
15083;DHT22;7640;53.116;6.878;2023-02-26T09:03:18;3.00;99.90
15083;DHT22;7640;53.116;6.878;2023-02-26T09:05:46;3.00;99.90
15083;DHT22;7640;53.116;6.878;2023-02-26T09:08:15;3.10;99.90
15083;DHT22;7640;53.116;6.878;2023-02-26T09:10:46;3.10;99.90
15083;DHT22;7640;53.116;6.878;2023-02-26T09:13:16;3.10;99.90
15083;DHT22;7640;53.116;6.878;2023-02-26T09:15:45;3.20;99.90
15083;DHT22;7640;53.116;6.878;2023-02-26T09:18:16;3.20;99.90
15083;DHT22;7640;53.116;6.878;2023-02-26T09:20:44;3.30;99.90
15083;DHT22;7640;53.116;6.878;2023-02-26T09:23:13;3.30;99.90
15083;DHT22;7640;53.116;6.878;2023-02-26T09:25:41;3.40;99.90
15083;DHT22;7640;53.116;6.878;2023-02-26T09:28:09;3.50;99.90
15083;DHT22;7640;53.116;6.878;2023-02-26T09:30:39;3.50;99.90
15083;DHT22;7640;53.116;6.878;2023-02-26T09:33:08;3.60;99.90
15083;DHT22;7640;53.116;6.878;2023-02-26T09:35:36;3.70;99.90
15083;DHT22;7640;53.116;6.878;2023-02-26T09:38:05;3.70;99.90
15083;DHT22;7640;53.116;6.878;2023-02-26T09:40:43;3.70;99.90
15083;DHT22;7640;53.116;6.878;2023-02-26T09:43:33;3.80;99.90
15083;DHT22;7640;53.116;6.878;2023-02-26T09:46:22;3.90;99.90
15083;DHT22;7640;53.116;6.878;2023-02-26T09:49:01;3.90;99.90
15083;DHT22;7640;53.116;6.878;2023-02-26T09:51:34;4.00;99.90
15083;DHT22;7640;53.116;6.878;2023-02-26T09:54:08;4.10;99.90
15083;DHT22;7640;53.116;6.878;2023-02-26T09:56:42;4.10;99.90
15083;DHT22;7640;53.116;6.878;2023-02-26T09:59:11;4.20;99.90
15083;DHT22;7640;53.116;6.878;2023-02-26T10:01:46;4.20;99.90
15083;DHT22;7640;53.116;6.878;2023-02-26T10:04:24;4.20;99.90
15083;DHT22;7640;53.116;6.878;2023-02-26T10:07:08;4.20;99.90
15083;DHT22;7640;53.116;6.878;2023-02-26T10:09:52;4.20;99.90
15083;DHT22;7640;53.116;6.878;2023-02-26T10:12:28;4.20;99.90
15083;DHT22;7640;53.116;6.878;2023-02-26T10:15:02;4.20;99.90
15083;DHT22;7640;53.116;6.878;2023-02-26T10:17:40;4.30;99.90
15083;DHT22;7640;53.116;6.878;2023-02-26T10:20:17;4.40;99.90
15083;DHT22;7640;53.116;6.878;2023-02-26T10:22:55;4.40;99.90
15083;DHT22;7640;53.116;6.878;2023-02-26T10:25:32;4.50;99.90
15083;DHT22;7640;53.116;6.878;2023-02-26T10:28:14;4.70;99.90
15083;DHT22;7640;53.116;6.878;2023-02-26T10:30:55;4.80;99.90
15083;DHT22;7640;53.116;6.878;2023-02-26T10:33:35;4.80;99.90
15083;DHT22;7640;53.116;6.878;2023-02-26T10:36:13;4.90;99.90
15083;DHT22;7640;53.116;6.878;2023-02-26T10:38:48;5.00;99.90
15083;DHT22;7640;53.116;6.878;2023-02-26T10:41:22;5.00;99.90
15083;DHT22;7640;53.116;6.878;2023-02-26T10:43:59;5.10;99.90
15083;DHT22;7640;53.116;6.878;2023-02-26T10:46:38;5.10;99.90
15083;DHT22;7640;53.116;6.878;2023-02-26T10:49:32;5.10;99.90
15083;DHT22;7640;53.116;6.878;2023-02-26T10:52:12;5.20;99.90
15083;DHT22;7640;53.116;6.878;2023-02-26T10:54:48;5.20;99.90
15083;DHT22;7640;53.116;6.878;2023-02-26T10:57:29;5.20;99.90
15083;DHT22;7640;53.116;6.878;2023-02-26T11:00:03;5.30;99.90
15083;DHT22;7640;53.116;6.878;2023-02-26T11:02:38;5.30;99.90
15083;DHT22;7640;53.116;6.878;2023-02-26T11:05:17;5.30;99.90
15083;DHT22;7640;53.116;6.878;2023-02-26T11:07:51;5.30;99.90
15083;DHT22;7640;53.116;6.878;2023-02-26T11:10:24;5.30;99.90
15083;DHT22;7640;53.116;6.878;2023-02-26T11:13:07;5.40;99.90
15083;DHT22;7640;53.116;6.878;2023-02-26T11:15:36;5.40;99.90
15083;DHT22;7640;53.116;6.878;2023-02-26T11:18:05;5.50;99.90
15083;DHT22;7640;53.116;6.878;2023-02-26T11:20:42;5.60;99.90
15083;DHT22;7640;53.116;6.878;2023-02-26T11:23:15;5.70;99.90
15083;DHT22;7640;53.116;6.878;2023-02-26T11:25:46;5.70;99.90
15083;DHT22;7640;53.116;6.878;2023-02-26T11:28:22;5.80;99.90
15083;DHT22;7640;53.116;6.878;2023-02-26T11:30:53;5.80;99.90
15083;DHT22;7640;53.116;6.878;2023-02-26T11:33:27;5.90;99.90
15083;DHT22;7640;53.116;6.878;2023-02-26T11:35:59;5.80;99.90
15083;DHT22;7640;53.116;6.878;2023-02-26T11:38:31;5.80;99.90
15083;DHT22;7640;53.116;6.878;2023-02-26T11:41:00;5.90;99.90
15083;DHT22;7640;53.116;6.878;2023-02-26T11:43:35;5.90;99.90
15083;DHT22;7640;53.116;6.878;2023-02-26T11:46:11;5.90;99.90
15083;DHT22;7640;53.116;6.878;2023-02-26T11:48:41;6.00;99.90
15083;DHT22;7640;53.116;6.878;2023-02-26T11:51:15;6.00;99.90
15083;DHT22;7640;53.116;6.878;2023-02-26T11:53:50;6.10;99.90
15083;DHT22;7640;53.116;6.878;2023-02-26T11:56:24;6.10;99.90
15083;DHT22;7640;53.116;6.878;2023-02-26T11:58:54;6.30;99.90
15083;DHT22;7640;53.116;6.878;2023-02-26T12:01:27;6.40;99.90
15083;DHT22;7640;53.116;6.878;2023-02-26T12:03:59;6.50;99.90
15083;DHT22;7640;53.116;6.878;2023-02-26T12:06:30;6.60;99.90
15083;DHT22;7640;53.116;6.878;2023-02-26T12:08:58;6.80;99.90
15083;DHT22;7640;53.116;6.878;2023-02-26T12:11:41;6.90;99.90
15083;DHT22;7640;53.116;6.878;2023-02-26T12:14:28;7.00;99.90
15083;DHT22;7640;53.116;6.878;2023-02-26T12:17:18;7.10;99.90
15083;DHT22;7640;53.116;6.878;2023-02-26T12:20:11;7.10;99.90
15083;DHT22;7640;53.116;6.878;2023-02-26T12:22:50;7.00;99.90
15083;DHT22;7640;53.116;6.878;2023-02-26T12:25:42;7.00;99.90
15083;DHT22;7640;53.116;6.878;2023-02-26T12:28:42;6.80;99.90
15083;DHT22;7640;53.116;6.878;2023-02-26T12:38:08;7.10;99.90
15083;DHT22;7640;53.116;6.878;2023-02-26T12:41:02;7.20;99.90
15083;DHT22;7640;53.116;6.878;2023-02-26T12:43:45;7.30;99.90
15083;DHT22;7640;53.116;6.878;2023-02-26T12:46:31;7.50;99.90
15083;DHT22;7640;53.116;6.878;2023-02-26T12:49:40;7.70;99.90
15083;DHT22;7640;53.116;6.878;2023-02-26T12:52:31;7.80;99.90
15083;DHT22;7640;53.116;6.878;2023-02-26T12:55:29;8.00;99.90
15083;DHT22;7640;53.116;6.878;2023-02-26T12:58:15;8.10;99.90
15083;DHT22;7640;53.116;6.878;2023-02-26T13:01:17;8.10;99.90
15083;DHT22;7640;53.116;6.878;2023-02-26T13:04:14;7.90;99.90
15083;DHT22;7640;53.116;6.878;2023-02-26T13:07:27;7.90;99.90
15083;DHT22;7640;53.116;6.878;2023-02-26T13:10:13;8.10;99.90
15083;DHT22;7640;53.116;6.878;2023-02-26T13:12:56;8.40;99.90
15083;DHT22;7640;53.116;6.878;2023-02-26T13:15:51;8.80;99.90
15083;DHT22;7640;53.116;6.878;2023-02-26T13:18:29;9.20;99.90
15083;DHT22;7640;53.116;6.878;2023-02-26T13:21:03;9.70;99.90
15083;DHT22;7640;53.116;6.878;2023-02-26T13:23:37;10.20;99.90
15083;DHT22;7640;53.116;6.878;2023-02-26T13:26:13;10.40;99.90
15083;DHT22;7640;53.116;6.878;2023-02-26T13:28:47;10.40;99.90
15083;DHT22;7640;53.116;6.878;2023-02-26T13:31:22;10.10;99.90
15083;DHT22;7640;53.116;6.878;2023-02-26T13:33:55;9.90;99.90
15083;DHT22;7640;53.116;6.878;2023-02-26T13:36:27;10.00;99.90
15083;DHT22;7640;53.116;6.878;2023-02-26T13:39:12;10.30;99.90
15083;DHT22;7640;53.116;6.878;2023-02-26T13:41:58;10.60;99.90
15083;DHT22;7640;53.116;6.878;2023-02-26T13:44:38;10.70;99.90
15083;DHT22;7640;53.116;6.878;2023-02-26T13:47:27;10.60;99.90
15083;DHT22;7640;53.116;6.878;2023-02-26T13:50:12;10.40;99.90
15083;DHT22;7640;53.116;6.878;2023-02-26T13:52:51;10.60;99.90
15083;DHT22;7640;53.116;6.878;2023-02-26T13:55:42;10.80;99.90
15083;DHT22;7640;53.116;6.878;2023-02-26T13:58:29;11.30;99.90
15083;DHT22;7640;53.116;6.878;2023-02-26T14:01:08;11.50;99.90
15083;DHT22;7640;53.116;6.878;2023-02-26T14:03:44;11.50;99.90
15083;DHT22;7640;53.116;6.878;2023-02-26T14:06:36;11.20;99.90
15083;DHT22;7640;53.116;6.878;2023-02-26T14:12:35;10.20;99.90
15083;DHT22;7640;53.116;6.878;2023-02-26T14:15:38;9.80;99.90
15083;DHT22;7640;53.116;6.878;2023-02-26T14:18:26;9.30;99.90
15083;DHT22;7640;53.116;6.878;2023-02-26T14:21:39;9.00;99.90
15083;DHT22;7640;53.116;6.878;2023-02-26T14:24:20;8.70;99.90
15083;DHT22;7640;53.116;6.878;2023-02-26T14:27:06;8.60;99.90
15083;DHT22;7640;53.116;6.878;2023-02-26T14:29:59;8.50;99.90
15083;DHT22;7640;53.116;6.878;2023-02-26T14:32:33;8.40;99.90
15083;DHT22;7640;53.116;6.878;2023-02-26T14:35:11;8.30;99.90
15083;DHT22;7640;53.116;6.878;2023-02-26T14:37:43;8.20;99.90
15083;DHT22;7640;53.116;6.878;2023-02-26T14:40:16;8.00;99.90
15083;DHT22;7640;53.116;6.878;2023-02-26T14:42:50;7.90;99.90
15083;DHT22;7640;53.116;6.878;2023-02-26T14:45:28;7.80;99.90
15083;DHT22;7640;53.116;6.878;2023-02-26T14:47:59;7.70;99.90
15083;DHT22;7640;53.116;6.878;2023-02-26T14:50:37;7.60;99.90
15083;DHT22;7640;53.116;6.878;2023-02-26T14:53:49;7.50;99.90
15083;DHT22;7640;53.116;6.878;2023-02-26T14:56:32;7.50;99.90
15083;DHT22;7640;53.116;6.878;2023-02-26T14:59:19;7.50;99.90
15083;DHT22;7640;53.116;6.878;2023-02-26T15:01:58;7.50;99.90
15083;DHT22;7640;53.116;6.878;2023-02-26T15:04:54;7.50;99.90
15083;DHT22;7640;53.116;6.878;2023-02-26T15:07:59;7.40;99.90
15083;DHT22;7640;53.116;6.878;2023-02-26T15:10:44;7.30;99.90
15083;DHT22;7640;53.116;6.878;2023-02-26T15:13:40;7.40;99.90
15083;DHT22;7640;53.116;6.878;2023-02-26T15:16:25;7.40;99.90
15083;DHT22;7640;53.116;6.878;2023-02-26T15:19:12;7.20;99.90
15083;DHT22;7640;53.116;6.878;2023-02-26T15:21:58;7.30;99.90
15083;DHT22;7640;53.116;6.878;2023-02-26T15:24:35;7.30;99.90
15083;DHT22;7640;53.116;6.878;2023-02-26T15:27:05;7.20;99.90
15083;DHT22;7640;53.116;6.878;2023-02-26T15:29:36;7.20;99.90
15083;DHT22;7640;53.116;6.878;2023-02-26T15:32:14;7.20;99.90
15083;DHT22;7640;53.116;6.878;2023-02-26T15:34:45;7.10;99.90
15083;DHT22;7640;53.116;6.878;2023-02-26T15:37:20;7.10;99.90
15083;DHT22;7640;53.116;6.878;2023-02-26T15:39:53;7.20;99.90
15083;DHT22;7640;53.116;6.878;2023-02-26T15:42:27;7.20;99.90
15083;DHT22;7640;53.116;6.878;2023-02-26T15:45:00;7.20;99.90
15083;DHT22;7640;53.116;6.878;2023-02-26T15:47:31;7.10;99.90
15083;DHT22;7640;53.116;6.878;2023-02-26T15:50:00;7.00;99.90
15083;DHT22;7640;53.116;6.878;2023-02-26T15:52:28;6.90;99.90
15083;DHT22;7640;53.116;6.878;2023-02-26T15:55:02;6.90;99.90
15083;DHT22;7640;53.116;6.878;2023-02-26T15:57:32;6.90;99.90
15083;DHT22;7640;53.116;6.878;2023-02-26T16:00:07;6.90;99.90
15083;DHT22;7640;53.116;6.878;2023-02-26T16:02:36;6.90;99.90
15083;DHT22;7640;53.116;6.878;2023-02-26T16:05:06;6.90;99.90
15083;DHT22;7640;53.116;6.878;2023-02-26T16:07:36;6.70;99.90
15083;DHT22;7640;53.116;6.878;2023-02-26T16:10:14;6.70;99.90
15083;DHT22;7640;53.116;6.878;2023-02-26T16:12:44;6.80;99.90
15083;DHT22;7640;53.116;6.878;2023-02-26T16:15:18;6.80;99.90
15083;DHT22;7640;53.116;6.878;2023-02-26T16:17:52;6.80;99.90
15083;DHT22;7640;53.116;6.878;2023-02-26T16:20:25;6.80;99.90
15083;DHT22;7640;53.116;6.878;2023-02-26T16:22:55;6.80;99.90
15083;DHT22;7640;53.116;6.878;2023-02-26T16:25:29;6.80;99.90
15083;DHT22;7640;53.116;6.878;2023-02-26T16:28:02;6.70;99.90
15083;DHT22;7640;53.116;6.878;2023-02-26T16:30:34;6.70;99.90
15083;DHT22;7640;53.116;6.878;2023-02-26T16:33:06;6.60;99.90
15083;DHT22;7640;53.116;6.878;2023-02-26T16:35:42;6.50;99.90
15083;DHT22;7640;53.116;6.878;2023-02-26T16:38:17;6.30;99.90
15083;DHT22;7640;53.116;6.878;2023-02-26T16:40:57;6.20;99.90
15083;DHT22;7640;53.116;6.878;2023-02-26T16:43:33;6.10;99.90
15083;DHT22;7640;53.116;6.878;2023-02-26T16:46:12;6.10;99.90
15083;DHT22;7640;53.116;6.878;2023-02-26T16:48:46;6.00;99.90
15083;DHT22;7640;53.116;6.878;2023-02-26T16:51:19;5.90;99.90
15083;DHT22;7640;53.116;6.878;2023-02-26T16:53:52;5.90;99.90
15083;DHT22;7640;53.116;6.878;2023-02-26T16:56:28;5.80;99.90